Time;durP1;ratioP1;P1;durP2;ratioP2;P2;SDS_P1;SDS_P2;PMS_P1;PMS_P2;Temp;Humidity;BMP_temperature;BMP_pressure;BME280_temperature;BME280_humidity;BME280_pressure;Samples;Min_cycle;Max_cycle;Signal;HPM_P1;HPM_P2
2022/03/27 00:02:05;;;;;;;28.87;15.90;;;6.50;99.90;;;;;;5018395;28;20469;-71
2022/03/27 00:04:52;;;;;;;28.30;17.30;;;6.50;99.90;;;;;;5012867;28;20798;-70
2022/03/27 00:07:38;;;;;;;30.43;17.77;;;6.60;99.90;;;;;;5015784;28;20424;-71
2022/03/27 00:10:24;;;;;;;29.17;18.00;;;6.60;99.90;;;;;;5019230;28;20561;-71
2022/03/27 00:13:10;;;;;;;27.83;18.47;;;6.60;99.90;;;;;;5017833;28;20401;-70
2022/03/27 00:15:55;;;;;;;27.83;16.33;;;6.60;99.90;;;;;;5021481;28;20429;-72
2022/03/27 00:18:41;;;;;;;30.07;18.07;;;6.60;99.90;;;;;;5011034;28;20514;-73
2022/03/27 00:21:28;;;;;;;27.93;16.43;;;6.40;99.90;;;;;;5017322;28;20793;-71
2022/03/27 00:24:14;;;;;;;25.13;16.00;;;6.40;99.90;;;;;;5010860;28;20419;-71
2022/03/27 00:27:00;;;;;;;22.80;15.97;;;6.30;99.90;;;;;;5007828;28;20421;-71
2022/03/27 00:29:45;;;;;;;27.10;17.17;;;6.10;99.90;;;;;;5011888;28;20464;-71
2022/03/27 00:32:31;;;;;;;26.57;17.00;;;6.30;99.90;;;;;;5016958;28;20439;-71
2022/03/27 00:35:17;;;;;;;25.40;16.97;;;6.10;99.90;;;;;;5011787;28;20413;-71
2022/03/27 00:38:04;;;;;;;28.03;16.60;;;6.00;99.90;;;;;;5011940;28;20440;-70
2022/03/27 00:40:50;;;;;;;30.10;15.40;;;6.00;99.90;;;;;;5015159;28;20499;-70
2022/03/27 00:43:37;;;;;;;30.80;17.07;;;6.00;99.90;;;;;;5018656;28;20412;-72
2022/03/27 00:46:23;;;;;;;28.20;17.60;;;6.20;99.90;;;;;;5016813;28;20911;-71
2022/03/27 00:49:09;;;;;;;22.97;14.90;;;6.20;99.90;;;;;;5017401;28;20563;-72
2022/03/27 00:51:54;;;;;;;34.70;17.70;;;6.00;99.90;;;;;;5009129;28;20476;-72
2022/03/27 00:54:41;;;;;;;29.77;15.80;;;6.00;99.90;;;;;;5007365;28;20434;-70
2022/03/27 00:57:27;;;;;;;23.73;15.00;;;6.00;99.90;;;;;;5019739;28;20967;-71
2022/03/27 01:00:36;;;;;;;25.60;15.60;;;6.00;99.90;;;;;;5006834;28;20951;-71
2022/03/27 01:03:25;;;;;;;37.97;18.07;;;5.80;99.90;;;;;;5019381;28;20413;-71
2022/03/27 01:06:27;;;;;;;24.20;15.80;;;6.00;99.90;;;;;;5008398;28;20441;-71
2022/03/27 01:12:28;;;;;;;27.63;16.83;;;6.00;99.90;;;;;;5019812;28;20534;-71
2022/03/27 01:15:26;;;;;;;26.13;16.17;;;6.00;99.90;;;;;;5021379;28;20409;-71
2022/03/27 01:18:12;;;;;;;25.23;15.90;;;6.10;99.90;;;;;;5012145;28;20471;-71
2022/03/27 01:20:59;;;;;;;24.63;14.87;;;6.20;99.90;;;;;;5022647;28;20428;-73
2022/03/27 01:23:45;;;;;;;21.60;14.47;;;6.10;99.90;;;;;;5014556;28;20471;-71
2022/03/27 01:26:30;;;;;;;21.17;13.67;;;6.00;99.90;;;;;;5011431;28;20415;-72
2022/03/27 01:29:16;;;;;;;23.57;13.80;;;5.90;99.90;;;;;;5011853;28;20503;-72
2022/03/27 01:32:03;;;;;;;19.73;14.37;;;5.80;99.90;;;;;;5009728;28;20459;-72
2022/03/27 01:34:49;;;;;;;33.33;14.73;;;5.90;99.90;;;;;;5014531;28;20461;-70
2022/03/27 01:37:36;;;;;;;28.93;14.93;;;6.00;99.90;;;;;;5008746;28;20481;-71
2022/03/27 01:40:22;;;;;;;22.00;14.40;;;6.00;99.90;;;;;;5016283;28;20403;-71
2022/03/27 01:43:07;;;;;;;24.50;13.97;;;6.00;99.90;;;;;;5021194;28;20423;-71
2022/03/27 01:45:53;;;;;;;19.30;14.20;;;6.10;99.90;;;;;;5014528;28;20434;-71
2022/03/27 01:48:39;;;;;;;17.50;13.17;;;6.20;99.90;;;;;;5012760;28;20453;-70
2022/03/27 01:51:25;;;;;;;25.30;13.50;;;6.10;99.90;;;;;;5017343;28;20519;-71
2022/03/27 01:54:13;;;;;;;20.77;14.47;;;5.90;99.90;;;;;;5014508;28;20426;-71
2022/03/27 01:56:59;;;;;;;19.63;13.67;;;6.00;99.90;;;;;;5014492;28;20468;-71
2022/03/27 01:59:44;;;;;;;23.07;12.60;;;5.80;99.90;;;;;;5013000;28;20486;-72
2022/03/27 02:02:30;;;;;;;17.93;12.30;;;5.80;99.90;;;;;;5017472;28;20458;-71
2022/03/27 02:05:16;;;;;;;18.57;12.80;;;5.80;99.90;;;;;;5020570;28;20445;-71
2022/03/27 02:08:01;;;;;;;19.47;12.30;;;5.80;99.90;;;;;;5011432;28;20585;-71
2022/03/27 02:10:48;;;;;;;27.73;11.30;;;5.80;99.90;;;;;;5020068;28;20976;-71
2022/03/27 02:13:34;;;;;;;21.07;11.07;;;5.80;99.90;;;;;;5015789;28;20396;-71
2022/03/27 02:16:20;;;;;;;21.40;13.53;;;5.90;99.90;;;;;;5012660;28;20480;-71
2022/03/27 02:19:06;;;;;;;17.03;11.80;;;5.90;99.90;;;;;;5017372;28;20657;-71
2022/03/27 02:21:52;;;;;;;19.70;11.17;;;5.70;99.90;;;;;;5014449;28;20465;-72
2022/03/27 02:24:38;;;;;;;26.17;14.07;;;5.70;99.90;;;;;;5021024;28;20984;-70
2022/03/27 02:27:25;;;;;;;20.77;11.17;;;5.50;99.90;;;;;;5009866;28;20960;-72
2022/03/27 02:30:13;;;;;;;22.20;12.50;;;5.50;99.90;;;;;;5014903;28;20425;-71
2022/03/27 02:32:58;;;;;;;26.73;11.60;;;5.40;99.90;;;;;;5011846;28;20409;-76
2022/03/27 02:35:44;;;;;;;15.97;9.97;;;5.50;99.90;;;;;;5012567;28;20785;-72
2022/03/27 02:38:29;;;;;;;17.10;10.73;;;5.50;99.90;;;;;;5007909;28;20443;-70
2022/03/27 02:41:15;;;;;;;19.33;10.50;;;5.50;99.90;;;;;;5015347;28;20829;-71
2022/03/27 02:44:02;;;;;;;20.70;11.00;;;5.50;99.90;;;;;;5016610;28;20775;-70
2022/03/27 02:46:48;;;;;;;13.53;10.03;;;5.50;99.90;;;;;;5004172;28;21106;-71
2022/03/27 02:49:33;;;;;;;17.63;11.40;;;5.60;99.90;;;;;;5013213;28;20421;-71
2022/03/27 02:52:19;;;;;;;16.70;9.70;;;5.70;99.90;;;;;;5019317;28;20447;-72
2022/03/27 02:55:05;;;;;;;14.87;9.90;;;5.70;99.90;;;;;;5006395;28;20404;-72
2022/03/27 02:57:53;;;;;;;15.13;10.37;;;5.70;99.90;;;;;;5008228;28;20523;-71
2022/03/27 03:00:41;;;;;;;17.13;9.63;;;5.60;99.90;;;;;;5014478;28;20462;-72
2022/03/27 03:03:27;;;;;;;16.73;10.53;;;5.50;99.90;;;;;;5013053;28;20433;-71
2022/03/27 03:06:13;;;;;;;25.27;10.67;;;5.50;99.90;;;;;;5013996;28;20462;-71
2022/03/27 03:08:59;;;;;;;15.30;9.90;;;5.50;99.90;;;;;;5007606;28;20418;-71
2022/03/27 03:11:45;;;;;;;16.20;9.90;;;5.50;99.90;;;;;;5016128;28;20465;-72
2022/03/27 03:14:31;;;;;;;20.60;11.00;;;5.40;99.90;;;;;;5022194;28;20420;-72
2022/03/27 03:17:18;;;;;;;22.97;10.97;;;5.60;99.90;;;;;;5011610;28;20534;-73
2022/03/27 03:20:04;;;;;;;15.73;11.00;;;5.40;99.90;;;;;;5023969;28;20423;-72
2022/03/27 03:22:50;;;;;;;16.93;11.10;;;5.50;99.90;;;;;;5016885;28;20531;-72
2022/03/27 03:25:36;;;;;;;18.33;10.07;;;5.60;99.90;;;;;;5012276;28;20580;-71
2022/03/27 03:28:21;;;;;;;14.27;9.63;;;5.60;99.90;;;;;;5015427;28;20967;-70
2022/03/27 03:31:07;;;;;;;15.67;10.57;;;5.50;99.90;;;;;;5017705;28;20424;-72
2022/03/27 03:33:54;;;;;;;19.57;10.33;;;5.40;99.90;;;;;;5022372;28;20503;-72
2022/03/27 03:36:41;;;;;;;16.27;10.80;;;5.40;99.90;;;;;;5012487;28;20424;-72
2022/03/27 03:39:27;;;;;;;13.30;9.60;;;5.40;99.90;;;;;;5012143;28;20436;-72
2022/03/27 03:42:12;;;;;;;15.63;9.30;;;5.60;99.90;;;;;;5019210;28;20423;-72
2022/03/27 03:44:58;;;;;;;13.47;9.10;;;5.50;99.90;;;;;;5011046;28;20466;-70
2022/03/27 03:47:43;;;;;;;16.80;10.67;;;5.50;99.90;;;;;;5010875;28;20431;-72
2022/03/27 03:50:33;;;;;;;12.77;9.90;;;5.50;99.90;;;;;;5015454;28;20415;-71
2022/03/27 03:53:18;;;;;;;17.10;10.10;;;5.50;99.90;;;;;;5020273;28;20780;-72
2022/03/27 03:56:05;;;;;;;17.73;9.63;;;5.70;99.90;;;;;;5016940;28;20963;-71
2022/03/27 03:58:50;;;;;;;15.83;9.27;;;5.50;99.90;;;;;;5012563;28;20436;-71
2022/03/27 04:01:36;;;;;;;12.10;9.47;;;5.40;99.90;;;;;;5015034;28;20422;-71
2022/03/27 04:04:22;;;;;;;16.40;9.97;;;5.30;99.90;;;;;;5018451;28;20542;-72
2022/03/27 04:07:09;;;;;;;12.70;9.27;;;5.50;99.90;;;;;;5011300;28;20436;-72
2022/03/27 04:09:55;;;;;;;13.27;9.40;;;5.50;99.90;;;;;;5018828;28;20778;-72
2022/03/27 04:12:40;;;;;;;15.77;9.40;;;5.30;99.90;;;;;;5007126;28;20561;-70
2022/03/27 04:15:26;;;;;;;20.30;10.27;;;5.40;99.90;;;;;;5008733;28;20498;-72
2022/03/27 04:18:12;;;;;;;14.27;9.00;;;5.30;99.90;;;;;;5011845;28;20472;-71
2022/03/27 04:20:57;;;;;;;20.00;10.50;;;5.30;99.90;;;;;;5015792;28;20483;-72
2022/03/27 04:23:44;;;;;;;15.53;9.83;;;5.40;99.90;;;;;;5016476;28;20794;-72
2022/03/27 04:26:30;;;;;;;15.67;10.00;;;5.40;99.90;;;;;;5005581;28;20424;-71
2022/03/27 04:29:16;;;;;;;12.70;9.30;;;5.20;99.90;;;;;;5015823;28;20409;-72
2022/03/27 04:32:01;;;;;;;17.47;9.83;;;5.30;99.90;;;;;;5005445;28;21053;-71
2022/03/27 04:34:50;;;;;;;15.60;10.03;;;5.00;99.90;;;;;;5013090;28;20429;-72
2022/03/27 04:37:39;;;;;;;15.97;10.03;;;4.90;99.90;;;;;;5009704;28;20456;-70
2022/03/27 04:40:27;;;;;;;16.80;10.20;;;4.90;99.90;;;;;;5016397;28;20932;-72
2022/03/27 04:43:13;;;;;;;13.80;10.13;;;4.90;99.90;;;;;;5016717;28;20403;-72
2022/03/27 04:45:58;;;;;;;14.90;9.20;;;5.00;99.90;;;;;;5017348;28;20423;-72
2022/03/27 04:48:45;;;;;;;19.03;10.40;;;4.90;99.90;;;;;;5016702;28;20407;-72
2022/03/27 04:51:30;;;;;;;16.03;10.60;;;4.90;99.90;;;;;;5011687;28;20520;-72
2022/03/27 04:54:16;;;;;;;14.67;10.47;;;4.70;99.90;;;;;;5012807;28;20409;-70
2022/03/27 04:57:03;;;;;;;17.60;10.80;;;4.80;99.90;;;;;;5010919;28;20573;-72
2022/03/27 04:59:50;;;;;;;15.20;9.20;;;4.80;99.90;;;;;;5008028;28;20455;-71
2022/03/27 05:02:35;;;;;;;17.00;10.80;;;4.70;99.90;;;;;;5014678;28;20445;-72
2022/03/27 05:05:21;;;;;;;14.37;10.37;;;4.70;99.90;;;;;;5013866;28;20871;-72
2022/03/27 05:08:07;;;;;;;24.33;10.27;;;4.70;99.90;;;;;;5010324;28;20406;-71
2022/03/27 05:10:53;;;;;;;17.30;10.00;;;4.80;99.90;;;;;;5016349;28;20453;-72
2022/03/27 05:13:40;;;;;;;16.77;10.03;;;4.90;99.90;;;;;;5007861;28;20404;-71
2022/03/27 05:16:26;;;;;;;20.90;10.77;;;5.00;99.90;;;;;;5010687;28;20473;-73
2022/03/27 05:19:11;;;;;;;15.23;11.20;;;5.00;99.90;;;;;;5017047;28;20481;-72
2022/03/27 05:21:57;;;;;;;15.77;9.97;;;5.00;99.90;;;;;;5009942;28;20952;-72
2022/03/27 05:24:43;;;;;;;15.03;10.30;;;5.10;99.90;;;;;;5007810;28;20682;-72
2022/03/27 05:27:28;;;;;;;19.13;10.27;;;5.10;99.90;;;;;;5018307;28;20560;-72
2022/03/27 05:30:18;;;;;;;15.53;10.90;;;5.10;99.90;;;;;;5013809;28;20408;-72
2022/03/27 05:33:05;;;;;;;13.83;9.73;;;5.00;99.90;;;;;;5018697;28;20426;-70
2022/03/27 05:35:50;;;;;;;15.70;9.13;;;4.80;99.90;;;;;;5005118;28;20867;-72
2022/03/27 05:38:37;;;;;;;23.10;11.80;;;4.80;99.90;;;;;;5010334;28;20453;-72
2022/03/27 05:41:23;;;;;;;18.57;10.63;;;4.70;99.90;;;;;;5018418;28;20444;-72
2022/03/27 05:44:08;;;;;;;20.00;12.13;;;4.80;99.90;;;;;;5008494;28;20923;-72
2022/03/27 05:46:56;;;;;;;15.03;10.20;;;4.80;99.90;;;;;;5007062;28;20508;-72
2022/03/27 05:49:42;;;;;;;20.33;10.70;;;4.70;99.90;;;;;;5010983;28;20433;-72
2022/03/27 05:52:28;;;;;;;14.93;10.00;;;5.00;99.90;;;;;;5013432;28;20456;-71
2022/03/27 05:55:14;;;;;;;18.83;10.80;;;5.00;99.90;;;;;;5004130;28;21028;-72
2022/03/27 05:58:00;;;;;;;15.80;11.17;;;5.20;99.90;;;;;;5013582;28;20463;-72
2022/03/27 06:00:46;;;;;;;17.20;11.00;;;5.20;99.90;;;;;;5015512;28;20472;-72
2022/03/27 06:03:33;;;;;;;19.57;11.63;;;5.40;99.90;;;;;;5011179;28;20435;-71
2022/03/27 06:06:19;;;;;;;14.27;9.03;;;5.50;99.90;;;;;;5014419;28;20432;-72
2022/03/27 06:09:04;;;;;;;18.73;11.17;;;5.70;99.90;;;;;;5006071;28;20415;-72
2022/03/27 06:11:50;;;;;;;20.93;10.67;;;5.70;99.90;;;;;;5008814;28;20519;-72
2022/03/27 06:14:35;;;;;;;23.90;11.50;;;5.80;99.90;;;;;;5004567;28;20463;-72
2022/03/27 06:17:21;;;;;;;24.80;11.13;;;5.80;99.90;;;;;;5009446;28;20399;-72
2022/03/27 06:20:10;;;;;;;25.63;12.10;;;5.90;99.90;;;;;;5014026;28;20569;-71
2022/03/27 06:22:57;;;;;;;15.53;10.67;;;6.10;99.90;;;;;;5011828;28;20763;-71
2022/03/27 06:25:42;;;;;;;15.50;10.97;;;6.30;99.90;;;;;;5010318;28;20430;-72
2022/03/27 06:28:28;;;;;;;17.77;11.50;;;6.40;99.90;;;;;;5008589;28;21012;-72
2022/03/27 06:31:14;;;;;;;17.60;11.17;;;6.40;99.90;;;;;;5010809;28;20435;-72
2022/03/27 06:33:59;;;;;;;19.20;10.83;;;6.50;99.90;;;;;;5009358;28;20449;-71
2022/03/27 06:36:46;;;;;;;20.70;11.00;;;6.70;99.90;;;;;;5017247;28;20412;-72
2022/03/27 06:39:31;;;;;;;16.80;11.37;;;6.90;99.90;;;;;;5009431;28;20428;-71
2022/03/27 06:42:17;;;;;;;18.20;11.40;;;7.20;99.90;;;;;;5021104;28;20453;-72
2022/03/27 06:45:03;;;;;;;19.53;11.73;;;7.40;99.90;;;;;;5004772;28;20459;-72
2022/03/27 06:47:50;;;;;;;16.50;10.73;;;7.50;99.90;;;;;;5012411;28;21044;-72
2022/03/27 06:50:35;;;;;;;18.63;12.43;;;7.70;99.90;;;;;;5011915;28;20483;-72
2022/03/27 06:53:24;;;;;;;14.03;10.10;;;7.80;99.90;;;;;;5010028;28;20531;-72
2022/03/27 06:56:10;;;;;;;20.10;11.23;;;8.00;99.90;;;;;;5014389;28;20405;-71
2022/03/27 06:58:55;;;;;;;17.33;12.40;;;8.20;99.90;;;;;;5013529;28;20949;-72
2022/03/27 07:04:44;;;;;;;25.10;13.53;;;8.50;99.90;;;;;;5005287;28;20469;-73
2022/03/27 07:07:30;;;;;;;21.60;11.20;;;8.60;99.90;;;;;;5009988;28;20428;-72
2022/03/27 07:10:17;;;;;;;23.07;11.33;;;8.80;99.90;;;;;;5014462;28;20488;-73
2022/03/27 07:13:03;;;;;;;22.40;12.60;;;9.00;99.90;;;;;;5006383;28;20472;-71
2022/03/27 07:15:50;;;;;;;17.50;11.23;;;9.20;99.90;;;;;;5014614;28;20415;-72
2022/03/27 07:18:35;;;;;;;21.43;13.23;;;9.40;99.90;;;;;;5007491;28;20600;-72
2022/03/27 07:21:21;;;;;;;21.30;11.93;;;9.50;99.90;;;;;;5015291;28;20417;-72
2022/03/27 07:24:07;;;;;;;17.37;12.67;;;9.70;99.90;;;;;;5008198;28;20424;-72
2022/03/27 07:26:54;;;;;;;17.77;12.73;;;9.90;99.90;;;;;;5010106;28;20945;-73
2022/03/27 07:29:40;;;;;;;22.67;12.90;;;10.10;99.90;;;;;;5006778;28;20874;-73
2022/03/27 07:32:26;;;;;;;17.47;12.30;;;10.20;99.90;;;;;;5001616;28;20789;-71
2022/03/27 07:35:14;;;;;;;18.77;12.60;;;10.50;99.90;;;;;;5010876;28;20583;-72
2022/03/27 07:38:01;;;;;;;16.87;12.30;;;10.70;99.90;;;;;;5011727;28;20953;-72
2022/03/27 07:40:47;;;;;;;21.70;12.20;;;10.80;99.90;;;;;;5009352;28;20586;-72
2022/03/27 07:43:34;;;;;;;20.70;12.00;;;11.00;99.90;;;;;;5004595;28;20851;-72
2022/03/27 07:46:20;;;;;;;19.77;12.83;;;11.20;99.90;;;;;;5020938;28;20423;-73
2022/03/27 07:49:06;;;;;;;17.33;11.57;;;11.30;99.90;;;;;;5008974;28;20453;-72
2022/03/27 07:51:51;;;;;;;18.50;11.83;;;11.50;99.90;;;;;;5016296;28;20467;-71
2022/03/27 07:54:37;;;;;;;15.60;10.70;;;11.60;99.90;;;;;;5013705;28;20440;-72
2022/03/27 07:57:23;;;;;;;15.60;11.30;;;11.80;99.90;;;;;;5010485;28;20407;-73
2022/03/27 08:00:11;;;;;;;18.63;12.00;;;12.00;99.90;;;;;;5021900;28;20499;-73
2022/03/27 08:02:58;;;;;;;17.43;11.90;;;12.10;99.90;;;;;;5007741;28;20452;-72
2022/03/27 08:05:44;;;;;;;16.70;11.30;;;12.30;99.90;;;;;;5018136;28;20526;-71
2022/03/27 08:08:29;;;;;;;16.73;11.60;;;12.50;99.90;;;;;;5010335;28;20790;-73
2022/03/27 08:11:16;;;;;;;22.30;12.10;;;12.70;99.90;;;;;;5015114;28;20820;-73
2022/03/27 08:14:01;;;;;;;16.60;11.07;;;12.90;99.90;;;;;;5012427;28;20449;-73
2022/03/27 08:16:48;;;;;;;20.77;11.40;;;13.10;99.90;;;;;;5021078;28;20436;-72
2022/03/27 08:19:34;;;;;;;21.80;11.80;;;13.30;99.90;;;;;;5019346;28;20427;-73
2022/03/27 08:22:20;;;;;;;21.80;12.60;;;13.50;99.90;;;;;;5015020;28;20475;-72
2022/03/27 08:25:07;;;;;;;18.47;12.03;;;13.60;99.80;;;;;;5014823;28;20489;-73
2022/03/27 08:27:52;;;;;;;17.33;11.87;;;13.80;99.90;;;;;;5022901;28;20420;-71
2022/03/27 08:30:39;;;;;;;19.10;12.13;;;13.90;99.80;;;;;;5013323;28;20469;-73
2022/03/27 08:33:26;;;;;;;16.83;11.90;;;14.10;99.70;;;;;;5007614;28;20447;-73
2022/03/27 08:36:12;;;;;;;20.73;12.27;;;14.30;96.60;;;;;;5012646;28;20426;-73
2022/03/27 08:38:57;;;;;;;17.23;11.43;;;14.40;95.80;;;;;;5007951;28;20601;-71
2022/03/27 08:41:47;;;;;;;17.47;12.00;;;14.60;93.30;;;;;;5010846;28;20461;-73
2022/03/27 08:44:34;;;;;;;17.20;10.67;;;14.70;92.60;;;;;;5005317;28;20480;-73
2022/03/27 08:47:24;;;;;;;22.30;12.50;;;14.80;92.00;;;;;;5018604;28;20417;-73
2022/03/27 08:50:26;;;;;;;19.23;11.03;;;15.00;91.40;;;;;;5018290;28;20422;-71
2022/03/27 08:53:12;;;;;;;19.43;12.13;;;15.10;91.40;;;;;;5009631;28;20440;-72
2022/03/27 08:56:03;;;;;;;14.60;10.70;;;15.20;85.40;;;;;;5011397;28;20426;-69
2022/03/27 08:58:49;;;;;;;21.23;11.80;;;15.30;85.40;;;;;;5012802;28;20462;-72
2022/03/27 09:01:35;;;;;;;14.93;11.33;;;15.40;85.60;;;;;;5009682;28;20468;-71
2022/03/27 09:04:21;;;;;;;21.10;12.50;;;15.50;84.40;;;;;;5009528;28;20425;-72
2022/03/27 09:07:08;;;;;;;21.13;12.43;;;15.60;81.90;;;;;;5013788;28;20437;-73
2022/03/27 09:09:54;;;;;;;23.47;11.50;;;15.70;78.50;;;;;;5016930;28;20425;-73
2022/03/27 09:12:40;;;;;;;18.47;12.47;;;15.90;79.30;;;;;;5007204;28;20532;-74
2022/03/27 09:15:26;;;;;;;15.23;10.90;;;16.00;74.60;;;;;;5013704;28;20980;-72
2022/03/27 09:18:12;;;;;;;17.50;11.57;;;16.10;76.70;;;;;;5015026;28;20437;-72
2022/03/27 09:21:01;;;;;;;20.47;11.50;;;16.30;75.00;;;;;;5010247;28;20465;-70
2022/03/27 09:23:54;;;;;;;18.67;11.67;;;16.30;74.50;;;;;;5010640;28;20472;-73
2022/03/27 09:26:59;;;;;;;16.30;10.97;;;16.40;73.40;;;;;;5019837;28;20418;-69
2022/03/27 09:29:59;;;;;;;15.10;8.97;;;16.60;73.70;;;;;;5010141;28;20971;-71
2022/03/27 09:32:46;;;;;;;12.93;8.67;;;16.80;74.70;;;;;;5005136;28;20418;-71
2022/03/27 09:35:33;;;;;;;12.93;8.57;;;17.00;75.20;;;;;;5017992;28;20421;-70
2022/03/27 09:38:20;;;;;;;15.00;9.70;;;17.20;72.50;;;;;;5014459;28;20591;-70
2022/03/27 09:41:28;;;;;;;15.53;8.70;;;17.40;71.40;;;;;;5020838;28;20457;-70
2022/03/27 09:44:15;;;;;;;17.37;9.17;;;17.50;69.80;;;;;;5009971;28;20942;-70
2022/03/27 09:47:02;;;;;;;13.20;9.63;;;17.70;67.60;;;;;;5017211;28;20797;-70
2022/03/27 09:49:48;;;;;;;10.93;8.13;;;17.80;63.70;;;;;;5007874;28;20482;-70
2022/03/27 09:52:34;;;;;;;11.23;8.03;;;17.90;64.50;;;;;;5005813;28;20885;-70
2022/03/27 09:55:20;;;;;;;10.57;7.73;;;17.90;61.50;;;;;;5014516;28;20467;-70
2022/03/27 09:58:09;;;;;;;14.97;7.40;;;18.10;60.10;;;;;;5015127;28;20922;-70
2022/03/27 10:01:08;;;;;;;10.93;6.87;;;18.30;58.20;;;;;;5012996;28;20492;-70
2022/03/27 10:03:59;;;;;;;9.53;6.40;;;18.40;57.40;;;;;;5013887;28;20418;-71
2022/03/27 10:06:45;;;;;;;11.80;6.80;;;18.50;55.00;;;;;;5006461;28;20450;-73
2022/03/27 10:09:31;;;;;;;7.23;6.13;;;18.40;54.50;;;;;;5012721;28;20427;-74
2022/03/27 10:12:18;;;;;;;10.83;6.50;;;18.50;54.00;;;;;;5006439;28;20508;-73
2022/03/27 10:15:08;;;;;;;8.13;5.53;;;18.60;52.90;;;;;;5014650;28;20429;-73
2022/03/27 10:17:58;;;;;;;9.80;6.20;;;18.60;52.90;;;;;;5014161;28;20508;-73
2022/03/27 10:20:48;;;;;;;10.80;6.63;;;18.60;51.80;;;;;;5007854;28;20887;-73
2022/03/27 10:23:35;;;;;;;12.10;7.20;;;18.80;52.00;;;;;;5008498;28;20523;-73
2022/03/27 10:26:21;;;;;;;9.40;6.70;;;18.90;52.50;;;;;;5014474;28;20849;-73
2022/03/27 10:29:08;;;;;;;10.47;8.23;;;19.00;50.60;;;;;;5010765;28;20437;-72
2022/03/27 10:31:56;;;;;;;7.80;5.77;;;19.10;50.70;;;;;;5008441;28;20476;-73
2022/03/27 10:34:55;;;;;;;12.60;6.40;;;19.20;48.50;;;;;;5010974;28;20413;-72
2022/03/27 10:37:48;;;;;;;7.27;5.27;;;19.20;48.10;;;;;;5014668;28;20445;-73
2022/03/27 10:40:41;;;;;;;8.33;5.43;;;19.40;48.40;;;;;;5014557;28;20605;-73
2022/03/27 10:43:34;;;;;;;10.17;5.40;;;19.50;46.00;;;;;;5012214;28;20429;-72
2022/03/27 10:46:22;;;;;;;8.03;5.13;;;19.60;43.80;;;;;;5017735;28;20428;-72
2022/03/27 10:49:14;;;;;;;8.30;5.57;;;19.80;45.60;;;;;;5008544;28;21006;-73
2022/03/27 10:52:05;;;;;;;6.90;4.53;;;19.90;44.50;;;;;;5006504;28;20472;-72
2022/03/27 10:54:59;;;;;;;8.67;4.73;;;20.00;43.30;;;;;;5019031;28;20524;-73
2022/03/27 10:57:46;;;;;;;6.53;4.93;;;20.00;39.60;;;;;;5016901;28;21038;-73
2022/03/27 11:00:39;;;;;;;7.87;5.50;;;20.10;40.90;;;;;;5008366;28;20460;-72
2022/03/27 11:03:52;;;;;;;11.20;5.40;;;20.20;41.00;;;;;;5015880;28;21001;-73
2022/03/27 11:06:41;;;;;;;11.87;6.37;;;20.30;39.90;;;;;;5016023;28;20425;-73
2022/03/27 11:09:35;;;;;;;9.17;5.43;;;20.50;40.10;;;;;;5012179;28;20417;-73
2022/03/27 11:12:29;;;;;;;8.37;5.87;;;20.50;38.90;;;;;;5014258;28;20521;-73
2022/03/27 11:15:15;;;;;;;10.80;5.37;;;20.70;37.30;;;;;;5015881;28;20433;-73
2022/03/27 11:18:12;;;;;;;7.70;5.87;;;20.80;40.40;;;;;;5016838;28;20457;-73
2022/03/27 11:20:58;;;;;;;9.80;5.37;;;20.90;39.00;;;;;;5004890;28;21078;-73
2022/03/27 11:23:45;;;;;;;8.43;4.77;;;20.90;36.80;;;;;;5007502;28;20422;-73
2022/03/27 11:26:35;;;;;;;10.03;6.30;;;21.00;37.90;;;;;;5013432;28;20804;-73
2022/03/27 11:29:22;;;;;;;10.07;7.03;;;21.20;36.30;;;;;;5016975;28;20790;-73
2022/03/27 11:32:09;;;;;;;7.93;4.90;;;21.30;35.80;;;;;;5004015;28;20481;-73
2022/03/27 11:35:15;;;;;;;10.03;5.70;;;21.40;35.60;;;;;;5006530;28;20931;-73
2022/03/27 11:38:21;;;;;;;8.63;5.60;;;21.50;37.80;;;;;;5012622;28;20433;-74
2022/03/27 11:41:26;;;;;;;7.30;4.70;;;21.60;35.70;;;;;;5016559;28;20508;-75
2022/03/27 11:45:06;;;;;;;6.70;4.33;;;21.60;36.10;;;;;;5015126;28;20429;-75
2022/03/27 11:47:37;;;;;;;8.90;5.03;;;21.70;34.70;;;;;;5018045;28;20967;-75
2022/03/27 11:50:29;;;;;;;9.63;4.47;;;21.70;35.20;;;;;;5017043;28;20436;-76
2022/03/27 11:53:14;;;;;;;6.17;4.20;;;21.80;34.70;;;;;;5020737;28;21027;-75
2022/03/27 11:56:08;;;;;;;8.03;4.87;;;21.80;33.20;;;;;;5010759;28;20883;-75
2022/03/27 11:59:05;;;;;;;7.47;4.73;;;21.70;31.80;;;;;;5020603;28;20452;-75
2022/03/27 12:01:52;;;;;;;10.37;5.30;;;21.70;36.40;;;;;;5008882;28;21101;-75
2022/03/27 12:04:51;;;;;;;7.40;4.60;;;21.90;34.60;;;;;;5017450;28;20572;-74
2022/03/27 12:07:53;;;;;;;8.27;4.93;;;21.90;35.30;;;;;;5016082;28;20511;-75
2022/03/27 12:10:41;;;;;;;8.83;4.80;;;22.00;34.20;;;;;;5009392;28;20951;-75
2022/03/27 12:13:27;;;;;;;8.43;4.63;;;22.20;34.50;;;;;;5012347;28;20435;-75
2022/03/27 12:16:20;;;;;;;8.13;4.63;;;22.20;34.90;;;;;;5016221;28;20449;-75
2022/03/27 12:19:13;;;;;;;13.23;5.00;;;22.20;33.60;;;;;;5014504;28;20935;-76
2022/03/27 12:21:59;;;;;;;10.83;4.33;;;22.20;31.70;;;;;;5011318;28;20508;-75
2022/03/27 12:24:45;;;;;;;5.90;4.37;;;22.00;33.40;;;;;;5008629;28;20434;-75
2022/03/27 12:30:35;;;;;;;5.50;4.07;;;22.20;34.30;;;;;;4995592;28;20512;-76
2022/03/27 12:33:24;;;;;;;9.17;5.30;;;22.30;34.40;;;;;;5009273;28;20426;-75
2022/03/27 12:36:11;;;;;;;7.80;5.50;;;22.50;33.70;;;;;;5010354;28;20438;-75
2022/03/27 12:38:56;;;;;;;7.07;4.93;;;22.60;33.40;;;;;;5010078;28;20650;-75
2022/03/27 12:41:42;;;;;;;9.03;5.07;;;22.60;34.00;;;;;;5005950;28;20455;-76
2022/03/27 12:44:47;;;;;;;8.73;6.00;;;22.80;34.10;;;;;;5005238;28;20437;-75
2022/03/27 12:47:33;;;;;;;7.20;4.97;;;22.90;31.50;;;;;;5017678;28;20436;-75
2022/03/27 12:50:35;;;;;;;7.20;6.00;;;22.80;33.40;;;;;;5011492;28;20465;-75
2022/03/27 12:53:28;;;;;;;7.80;5.60;;;22.80;33.10;;;;;;5007343;28;20429;-74
2022/03/27 12:56:14;;;;;;;6.53;5.17;;;22.80;30.50;;;;;;5008020;28;20431;-75
2022/03/27 12:59:17;;;;;;;11.30;5.10;;;22.70;31.00;;;;;;5010775;28;20449;-76
2022/03/27 13:02:22;;;;;;;6.03;5.10;;;22.80;33.20;;;;;;5011134;28;20444;-72
2022/03/27 13:05:08;;;;;;;7.60;4.90;;;23.10;33.40;;;;;;5010313;28;20464;-73
2022/03/27 13:07:57;;;;;;;10.40;4.83;;;23.20;32.50;;;;;;5008584;28;20426;-72
2022/03/27 13:10:43;;;;;;;7.33;5.07;;;23.50;32.70;;;;;;5007224;28;20852;-72
2022/03/27 13:13:34;;;;;;;5.60;4.50;;;23.70;32.30;;;;;;5007820;28;20584;-72
2022/03/27 13:16:21;;;;;;;8.40;5.70;;;23.90;31.70;;;;;;5015385;28;20433;-72
2022/03/27 13:19:10;;;;;;;6.07;4.57;;;24.10;31.10;;;;;;5009422;28;20585;-72
2022/03/27 13:21:57;;;;;;;7.90;4.97;;;24.10;32.00;;;;;;5015885;28;20470;-72
2022/03/27 13:24:44;;;;;;;8.53;5.30;;;24.10;30.80;;;;;;5011176;28;20408;-72
2022/03/27 13:27:30;;;;;;;9.33;5.63;;;24.20;31.60;;;;;;5007735;28;20437;-71
2022/03/27 13:30:17;;;;;;;9.33;5.27;;;24.30;29.90;;;;;;5007369;28;20569;-72
2022/03/27 13:33:03;;;;;;;10.13;5.43;;;24.40;30.00;;;;;;5011870;28;20886;-72
2022/03/27 13:35:49;;;;;;;7.50;4.83;;;24.50;31.30;;;;;;5012120;28;20427;-72
2022/03/27 13:38:35;;;;;;;7.60;4.60;;;24.70;30.20;;;;;;5012631;28;20421;-72
2022/03/27 13:44:26;;;;;;;9.00;5.03;;;24.80;29.30;;;;;;5009402;28;20854;-72
2022/03/27 13:47:14;;;;;;;5.63;4.43;;;24.80;29.70;;;;;;5013126;28;20514;-72
2022/03/27 13:49:59;;;;;;;6.83;3.93;;;24.90;29.00;;;;;;5009914;28;20453;-72
2022/03/27 13:52:45;;;;;;;5.93;4.07;;;25.00;30.10;;;;;;5012398;28;20430;-71
2022/03/27 13:55:31;;;;;;;7.70;5.33;;;25.20;29.70;;;;;;5011347;28;20802;-73
2022/03/27 13:58:17;;;;;;;5.87;4.33;;;25.40;29.20;;;;;;5014980;28;20421;-72
2022/03/27 14:01:03;;;;;;;6.90;4.17;;;25.50;28.40;;;;;;5006113;28;20994;-72
2022/03/27 14:03:49;;;;;;;9.53;3.73;;;25.60;28.90;;;;;;5018642;28;20769;-70
2022/03/27 14:06:35;;;;;;;5.67;3.90;;;25.70;29.00;;;;;;5013030;28;20789;-73
2022/03/27 14:09:21;;;;;;;9.10;4.70;;;25.50;28.40;;;;;;5010112;28;20445;-72
2022/03/27 14:12:07;;;;;;;7.73;4.90;;;25.40;29.10;;;;;;5007544;28;20478;-73
2022/03/27 14:14:55;;;;;;;5.90;4.10;;;24.90;29.30;;;;;;5013938;28;20786;-72
2022/03/27 14:17:40;;;;;;;6.30;4.10;;;24.80;30.40;;;;;;5006569;28;20476;-72
2022/03/27 14:20:26;;;;;;;8.03;4.80;;;24.70;29.60;;;;;;5011727;28;20572;-71
2022/03/27 14:23:12;;;;;;;7.00;4.77;;;24.50;29.90;;;;;;5009968;28;20641;-70
2022/03/27 14:26:00;;;;;;;7.90;4.70;;;24.30;29.90;;;;;;5016211;28;20504;-70
2022/03/27 14:28:46;;;;;;;6.00;4.17;;;24.60;30.10;;;;;;5008657;28;20564;-72
2022/03/27 14:31:34;;;;;;;4.37;3.30;;;24.70;30.30;;;;;;5016913;28;20959;-72
2022/03/27 14:34:20;;;;;;;5.80;3.57;;;24.80;30.30;;;;;;5004102;28;20432;-72
2022/03/27 14:37:06;;;;;;;7.90;3.70;;;24.50;30.00;;;;;;5011607;28;20425;-72